N14496 UWKJ-UWKS
Flight info
| Callsign | N14496 |
|---|---|
| Flight time | N/A |
| Altitude | 10000 |
| Route | K0474F160 AGBUN1B AGBUN AGBUN1B |
| Aircraft | SF50/L-SDGRWY/L |
Departure
| Time | 2026-04-23 14:32 |
|---|---|
| Airport | Yoshkar-Ola Airport (UWKJ) |
Arrival
| Time | N/A |
|---|---|
| Airport | Cheboksary Airport (UWKS) |
| Time | Latitude | Longitude | Altitude | Speed | Heading |
|---|---|---|---|---|---|
| 2026-04-23 14:32 | 56.69379 | 47.76356 | 8107 ft | 204 kts | 206° |
| 2026-04-23 14:32 | 56.68084 | 47.75267 | 8563 ft | 199 kts | 205° |
| 2026-04-23 14:32 | 56.66742 | 47.74292 | 8921 ft | 207 kts | 201° |
| 2026-04-23 14:32 | 56.65493 | 47.73421 | 9279 ft | 207 kts | 198° |
| 2026-04-23 14:33 | 56.64108 | 47.72763 | 9712 ft | 203 kts | 195° |
| 2026-04-23 14:33 | 56.62702 | 47.72066 | 10047 ft | 211 kts | 194° |
| 2026-04-23 14:33 | 56.61264 | 47.71401 | 10349 ft | 211 kts | 195° |
| 2026-04-23 14:33 | 56.59818 | 47.70713 | 10339 ft | 211 kts | 194° |
| 2026-04-23 14:34 | 56.58373 | 47.70034 | 10338 ft | 210 kts | 195° |
| 2026-04-23 14:34 | 56.56942 | 47.69363 | 10338 ft | 209 kts | 194° |
| 2026-04-23 14:34 | 56.55517 | 47.68693 | 10338 ft | 209 kts | 194° |
| 2026-04-23 14:34 | 56.54049 | 47.68005 | 10338 ft | 209 kts | 195° |
| 2026-04-23 14:35 | 56.52610 | 47.67330 | 10338 ft | 209 kts | 194° |
| 2026-04-23 14:35 | 56.51174 | 47.66658 | 10338 ft | 209 kts | 195° |
| 2026-04-23 14:35 | 56.49735 | 47.65984 | 10337 ft | 213 kts | 195° |
| 2026-04-23 14:35 | 56.48260 | 47.65294 | 10340 ft | 218 kts | 195° |
| 2026-04-23 14:36 | 56.46729 | 47.64579 | 10339 ft | 220 kts | 195° |
| 2026-04-23 14:36 | 56.45195 | 47.63863 | 10338 ft | 220 kts | 195° |
| 2026-04-23 14:36 | 56.43655 | 47.63144 | 10329 ft | 221 kts | 195° |
| 2026-04-23 14:36 | 56.42112 | 47.62425 | 10343 ft | 221 kts | 195° |
| 2026-04-23 14:37 | 56.40570 | 47.61707 | 10347 ft | 221 kts | 195° |
| 2026-04-23 14:37 | 56.39042 | 47.60996 | 10347 ft | 221 kts | 194° |
| 2026-04-23 14:37 | 56.37558 | 47.60146 | 10347 ft | 221 kts | 201° |
| 2026-04-23 14:37 | 56.36062 | 47.59175 | 10348 ft | 221 kts | 199° |
| 2026-04-23 14:38 | 56.34579 | 47.58197 | 10348 ft | 221 kts | 200° |
| 2026-04-23 14:38 | 56.33087 | 47.57230 | 10348 ft | 221 kts | 200° |
| 2026-04-23 14:38 | 56.31674 | 47.56300 | 10331 ft | 203 kts | 200° |
| 2026-04-23 14:38 | 56.30372 | 47.55451 | 10341 ft | 187 kts | 200° |
| 2026-04-23 14:39 | 56.29023 | 47.54569 | 10347 ft | 205 kts | 200° |
| 2026-04-23 14:39 | 56.27741 | 47.53731 | 10341 ft | 178 kts | 200° |
| 2026-04-23 14:39 | 56.26637 | 47.53010 | 10334 ft | 155 kts | 200° |
| 2026-04-23 14:39 | 56.25652 | 47.52365 | 10321 ft | 136 kts | 200° |
| 2026-04-23 14:40 | 56.24780 | 47.51797 | 10293 ft | 120 kts | 200° |
| 2026-04-23 14:40 | 56.23951 | 47.51259 | 10264 ft | 141 kts | 200° |
| 2026-04-23 14:40 | 56.22861 | 47.50550 | 10302 ft | 179 kts | 200° |
| 2026-04-23 14:40 | 56.21607 | 47.49734 | 10158 ft | 194 kts | 200° |
| 2026-04-23 14:41 | 56.20531 | 47.49038 | 11056 ft | 152 kts | 200° |
| 2026-04-23 14:41 | 56.19390 | 47.48292 | 11183 ft | 184 kts | 200° |
| 2026-04-23 14:41 | 56.18104 | 47.47459 | 11046 ft | 199 kts | 200° |
| 2026-04-23 14:41 | 56.16782 | 47.46600 | 10666 ft | 195 kts | 200° |
| 2026-04-23 14:42 | 56.15494 | 47.45765 | 10181 ft | 194 kts | 200° |
| 2026-04-23 14:42 | 56.14209 | 47.44932 | 9727 ft | 191 kts | 200° |
| 2026-04-23 14:42 | 56.12932 | 47.44105 | 9287 ft | 188 kts | 200° |
| 2026-04-23 14:42 | 56.11809 | 47.42895 | 8851 ft | 185 kts | 225° |
| 2026-04-23 14:43 | 56.10839 | 47.41299 | 8435 ft | 182 kts | 221° |
| 2026-04-23 14:43 | 56.10075 | 47.39577 | 8342 ft | 168 kts | 244° |
| 2026-04-23 14:43 | 56.09574 | 47.37628 | 8346 ft | 166 kts | 247° |
| 2026-04-23 14:43 | 56.09147 | 47.35632 | 8315 ft | 168 kts | 251° |
| 2026-04-23 14:44 | 56.08742 | 47.33594 | 7930 ft | 173 kts | 250° |
| 2026-04-23 14:44 | 56.08335 | 47.31472 | 7514 ft | 174 kts | 251° |
| 2026-04-23 14:44 | 56.07937 | 47.29384 | 7106 ft | 174 kts | 250° |
| 2026-04-23 14:44 | 56.07246 | 47.27588 | 6695 ft | 173 kts | 212° |
| 2026-04-23 14:45 | 56.06106 | 47.27305 | 6625 ft | 162 kts | 163° |
| 2026-04-23 14:45 | 56.05246 | 47.28518 | 6555 ft | 162 kts | 118° |
| 2026-04-23 14:45 | 56.05121 | 47.30557 | 6485 ft | 163 kts | 72° |
| 2026-04-23 14:45 | 56.05825 | 47.32165 | 6419 ft | 164 kts | 37° |
| 2026-04-23 14:46 | 56.06898 | 47.32879 | 6343 ft | 164 kts | 359° |
| 2026-04-23 14:46 | 56.07962 | 47.32156 | 6273 ft | 164 kts | 318° |
| 2026-04-23 14:46 | 56.08505 | 47.30345 | 6201 ft | 163 kts | 277° |
| 2026-04-23 14:46 | 56.08258 | 47.28365 | 6130 ft | 163 kts | 236° |
| 2026-04-23 14:47 | 56.07336 | 47.27146 | 6059 ft | 163 kts | 195° |
| 2026-04-23 14:47 | 56.06207 | 47.27310 | 5988 ft | 163 kts | 154° |
| 2026-04-23 14:47 | 56.05409 | 47.28775 | 5916 ft | 163 kts | 113° |
| 2026-04-23 14:47 | 56.05344 | 47.30789 | 5845 ft | 163 kts | 72° |
| 2026-04-23 14:48 | 56.06043 | 47.32403 | 5773 ft | 162 kts | 31° |
| 2026-04-23 14:48 | 56.07156 | 47.32801 | 5646 ft | 164 kts | 351° |
| 2026-04-23 14:48 | 56.08161 | 47.31822 | 5399 ft | 164 kts | 310° |
| 2026-04-23 14:48 | 56.08575 | 47.29925 | 5147 ft | 162 kts | 270° |
| 2026-04-23 14:49 | 56.08216 | 47.28041 | 4899 ft | 161 kts | 230° |
| 2026-04-23 14:49 | 56.07188 | 47.26952 | 4648 ft | 174 kts | 191° |
| 2026-04-23 14:49 | 56.05966 | 47.27239 | 4400 ft | 179 kts | 153° |
| 2026-04-23 14:49 | 56.05065 | 47.28810 | 4149 ft | 180 kts | 117° |
| 2026-04-23 14:50 | 56.04867 | 47.31047 | 3895 ft | 179 kts | 80° |
| 2026-04-23 14:50 | 56.05452 | 47.33038 | 3643 ft | 179 kts | 43° |
| 2026-04-23 14:50 | 56.06589 | 47.33932 | 3657 ft | 176 kts | 3° |
| 2026-04-23 14:50 | 56.07802 | 47.33352 | 3672 ft | 177 kts | 326° |
| 2026-04-23 14:51 | 56.08587 | 47.31647 | 3725 ft | 178 kts | 292° |
| 2026-04-23 14:51 | 56.08763 | 47.29384 | 3892 ft | 178 kts | 262° |
| 2026-04-23 14:51 | 56.08322 | 47.27299 | 4142 ft | 179 kts | 235° |
| 2026-04-23 14:51 | 56.07374 | 47.25748 | 4464 ft | 180 kts | 208° |
| 2026-04-23 14:52 | 56.06170 | 47.25102 | 4824 ft | 181 kts | 184° |
| 2026-04-23 14:52 | 56.04881 | 47.24965 | 5153 ft | 183 kts | 198° |
| 2026-04-23 14:52 | 56.03957 | 47.23405 | 5453 ft | 183 kts | 248° |
| 2026-04-23 14:52 | 56.03984 | 47.21121 | 5756 ft | 184 kts | 294° |
| 2026-04-23 14:53 | 56.04592 | 47.19035 | 6064 ft | 185 kts | 295° |
| 2026-04-23 14:53 | 56.05177 | 47.16888 | 6182 ft | 189 kts | 297° |
| 2026-04-23 14:53 | 56.05637 | 47.14668 | 6140 ft | 186 kts | 273° |
| 2026-04-23 14:53 | 56.05219 | 47.12500 | 6023 ft | 187 kts | 230° |
| 2026-04-23 14:54 | 56.04539 | 47.10474 | 5848 ft | 186 kts | 255° |
| 2026-04-23 14:54 | 56.04180 | 47.08228 | 5674 ft | 185 kts | 248° |
| 2026-04-23 14:54 | 56.03729 | 47.06002 | 5494 ft | 184 kts | 253° |
| 2026-04-23 14:54 | 56.03326 | 47.03798 | 5510 ft | 182 kts | 250° |
| 2026-04-23 14:55 | 56.02914 | 47.01582 | 5531 ft | 192 kts | 252° |
| 2026-04-23 14:55 | 56.02478 | 46.99233 | 5560 ft | 185 kts | 251° |
| 2026-04-23 14:55 | 56.02083 | 46.97122 | 5544 ft | 180 kts | 251° |